createdAt,value
2022-10-22T00:00:10.045Z,8.92
2022-10-22T00:02:37.073Z,8.89
2022-10-22T00:05:04.782Z,8.86
2022-10-22T00:07:31.530Z,8.86
2022-10-22T00:09:58.457Z,8.75
2022-10-22T00:12:25.378Z,8.72
2022-10-22T00:14:52.059Z,8.70
2022-10-22T00:17:19.019Z,8.71
2022-10-22T00:19:45.712Z,8.66
2022-10-22T00:22:12.665Z,8.59
2022-10-22T00:24:40.173Z,8.64
2022-10-22T00:27:09.529Z,8.67
2022-10-22T00:29:36.332Z,8.68
2022-10-22T00:32:04.397Z,8.67
2022-10-22T00:34:31.232Z,8.63
2022-10-22T00:36:57.979Z,8.68
2022-10-22T00:39:26.433Z,8.66
2022-10-22T00:41:55.269Z,8.57
2022-10-22T00:44:59.395Z,8.65
2022-10-22T00:47:28.954Z,8.43
2022-10-22T00:49:57.687Z,8.48
2022-10-22T00:52:25.041Z,8.59
2022-10-22T00:54:52.548Z,8.57
2022-10-22T00:57:20.320Z,8.30
2022-10-22T00:59:48.364Z,8.40
2022-10-22T01:02:16.232Z,8.30
2022-10-22T01:04:43.029Z,8.32
2022-10-22T01:07:18.956Z,8.20
2022-10-22T01:09:49.493Z,8.32
2022-10-22T01:12:31.345Z,8.45
2022-10-22T01:15:17.393Z,8.39
2022-10-22T01:17:55.620Z,8.27
2022-10-22T01:20:39.649Z,8.22
2022-10-22T01:23:12.334Z,8.35
2022-10-22T01:26:05.472Z,8.38
2022-10-22T01:28:57.056Z,8.39
2022-10-22T01:31:27.733Z,8.39
2022-10-22T01:33:55.232Z,8.38
2022-10-22T01:36:22.107Z,8.35
2022-10-22T01:38:51.585Z,8.46
2022-10-22T01:41:19.058Z,8.51
2022-10-22T01:43:45.824Z,8.50
2022-10-22T01:46:13.499Z,8.41
2022-10-22T01:48:43.133Z,8.38
2022-10-22T01:51:41.584Z,8.30
2022-10-22T01:54:11.112Z,8.26
2022-10-22T01:56:58.372Z,8.29
2022-10-22T01:59:52.331Z,8.28
2022-10-22T02:02:30.678Z,8.33
2022-10-22T02:05:03.755Z,8.34
2022-10-22T02:07:36.208Z,8.32
2022-10-22T02:10:04.961Z,8.32
2022-10-22T02:12:34.140Z,8.20
2022-10-22T02:15:03.848Z,8.25
2022-10-22T02:17:34.876Z,8.24
2022-10-22T02:20:10.170Z,8.08
2022-10-22T02:22:37.491Z,7.99
2022-10-22T02:25:06.448Z,8.00
2022-10-22T02:27:47.056Z,7.93
2022-10-22T02:30:20.133Z,7.98
2022-10-22T02:33:02.094Z,7.88
2022-10-22T02:35:30.356Z,7.72
2022-10-22T02:37:59.820Z,7.73
2022-10-22T02:40:28.018Z,7.83
2022-10-22T02:42:54.818Z,7.81
2022-10-22T02:45:22.368Z,7.76
2022-10-22T02:47:49.398Z,7.74
2022-10-22T02:50:16.437Z,7.83
2022-10-22T02:52:43.441Z,7.95
2022-10-22T02:55:10.474Z,8.08
2022-10-22T02:57:37.566Z,8.04
2022-10-22T03:00:06.383Z,7.96
2022-10-22T03:02:33.183Z,7.94
2022-10-22T03:05:00.240Z,7.83
2022-10-22T03:07:27.371Z,7.77
2022-10-22T03:09:57.223Z,7.80
2022-10-22T03:12:26.051Z,7.77
2022-10-22T03:14:53.133Z,7.80
2022-10-22T03:17:20.182Z,7.83
2022-10-22T03:19:47.412Z,7.85
2022-10-22T03:22:17.872Z,7.84
2022-10-22T03:24:52.374Z,7.80
2022-10-22T03:27:21.961Z,7.76
2022-10-22T03:29:51.404Z,7.79
2022-10-22T03:32:18.614Z,7.82
2022-10-22T03:34:45.177Z,7.82
2022-10-22T03:37:12.216Z,7.67
2022-10-22T03:39:39.093Z,7.83
2022-10-22T03:42:08.466Z,7.83
2022-10-22T03:44:38.273Z,7.85
2022-10-22T03:47:05.598Z,7.86
2022-10-22T03:49:32.664Z,7.86
2022-10-22T03:52:06.224Z,7.78
2022-10-22T03:54:33.102Z,7.61
2022-10-22T03:56:59.877Z,7.66
2022-10-22T03:59:26.570Z,7.67
2022-10-22T04:01:53.305Z,7.66
2022-10-22T04:04:20.653Z,7.78
2022-10-22T04:06:47.180Z,7.77
2022-10-22T04:09:13.936Z,7.54
2022-10-22T04:11:40.650Z,7.57
2022-10-22T04:14:07.470Z,7.62
2022-10-22T04:16:34.331Z,7.55
2022-10-22T04:19:01.070Z,7.75
2022-10-22T04:21:27.917Z,7.85
2022-10-22T04:23:56.472Z,7.69
2022-10-22T04:26:23.322Z,7.64
2022-10-22T04:28:51.450Z,7.62
2022-10-22T04:31:20.948Z,7.69
2022-10-22T04:33:48.153Z,7.72
2022-10-22T04:36:18.517Z,7.46
2022-10-22T04:38:47.689Z,7.28
2022-10-22T04:41:17.761Z,7.22
2022-10-22T04:43:45.296Z,7.48
2022-10-22T04:46:13.000Z,7.51
2022-10-22T04:48:41.724Z,7.67
2022-10-22T04:51:11.200Z,7.74
2022-10-22T04:53:38.081Z,7.77
2022-10-22T04:56:13.684Z,7.86
2022-10-22T04:58:40.391Z,7.83
2022-10-22T05:01:24.711Z,7.86
2022-10-22T05:03:53.508Z,7.89
2022-10-22T05:06:21.264Z,7.82
2022-10-22T05:08:52.087Z,7.80
2022-10-22T05:11:21.673Z,7.81
2022-10-22T05:13:48.650Z,7.81
2022-10-22T05:16:15.507Z,7.76
2022-10-22T05:18:44.179Z,7.86
2022-10-22T05:21:19.228Z,7.91
2022-10-22T05:23:48.356Z,7.95
2022-10-22T05:26:18.021Z,7.94
2022-10-22T05:28:45.054Z,7.96
2022-10-22T05:31:13.852Z,8.00
2022-10-22T05:33:41.342Z,8.04
2022-10-22T05:36:10.764Z,8.11
2022-10-22T05:38:37.548Z,8.19
2022-10-22T05:41:10.419Z,8.28
2022-10-22T05:43:38.041Z,8.23
2022-10-22T05:46:07.291Z,8.33
2022-10-22T05:48:34.181Z,8.39
2022-10-22T05:51:05.824Z,8.26
2022-10-22T05:53:33.492Z,8.28
2022-10-22T05:56:05.951Z,8.21
2022-10-22T05:58:33.176Z,8.30
2022-10-22T06:01:03.908Z,8.36
2022-10-22T06:03:31.900Z,8.28
2022-10-22T06:06:04.776Z,8.39
2022-10-22T06:08:31.648Z,8.37
2022-10-22T06:10:59.738Z,8.33
2022-10-22T06:13:26.567Z,8.42
2022-10-22T06:15:53.559Z,8.44
2022-10-22T06:18:20.297Z,8.43
2022-10-22T06:20:47.709Z,8.48
2022-10-22T06:23:15.396Z,8.46
2022-10-22T06:25:42.764Z,8.54
2022-10-22T06:28:09.900Z,8.38
2022-10-22T06:30:41.838Z,8.44
2022-10-22T06:33:11.171Z,8.51
2022-10-22T06:35:37.839Z,8.58
2022-10-22T06:38:04.604Z,8.54
2022-10-22T06:40:31.304Z,8.54
2022-10-22T06:42:59.916Z,8.69
2022-10-22T06:45:26.609Z,8.54
2022-10-22T06:47:53.804Z,8.61
2022-10-22T06:50:20.355Z,8.71
2022-10-22T06:52:47.192Z,8.67
2022-10-22T06:55:13.908Z,8.57
2022-10-22T06:57:40.737Z,8.69
2022-10-22T07:00:08.262Z,8.84
2022-10-22T07:02:35.181Z,8.91
2022-10-22T07:05:01.995Z,8.95
2022-10-22T07:07:28.724Z,9.04
2022-10-22T07:09:55.676Z,9.03
2022-10-22T07:12:22.416Z,9.13
2022-10-22T07:14:50.061Z,9.24
2022-10-22T07:17:16.741Z,9.30
2022-10-22T07:19:44.573Z,9.45
2022-10-22T07:22:12.157Z,9.60
2022-10-22T07:24:38.898Z,9.65
2022-10-22T07:27:09.403Z,9.75
2022-10-22T07:29:38.421Z,9.86
2022-10-22T07:32:05.281Z,9.94
2022-10-22T07:34:31.976Z,10.04
2022-10-22T07:36:59.417Z,10.14
2022-10-22T07:39:26.493Z,10.23
2022-10-22T07:41:53.600Z,10.32
2022-10-22T07:44:20.971Z,10.38
2022-10-22T07:46:49.204Z,10.32
2022-10-22T07:49:18.633Z,10.51
2022-10-22T07:51:45.800Z,10.58
2022-10-22T07:54:12.493Z,10.51
2022-10-22T07:56:39.199Z,10.63
2022-10-22T07:59:05.990Z,10.70
2022-10-22T08:01:32.816Z,10.82
2022-10-22T08:03:59.546Z,10.88
2022-10-22T08:06:26.305Z,10.85
2022-10-22T08:08:53.175Z,10.88
2022-10-22T08:11:19.873Z,11.05
2022-10-22T08:13:46.569Z,11.09
2022-10-22T08:16:14.367Z,11.12
2022-10-22T08:18:41.149Z,11.09
2022-10-22T08:21:07.992Z,11.10
2022-10-22T08:23:34.830Z,11.12
2022-10-22T08:26:03.036Z,11.12
2022-10-22T08:28:31.496Z,11.16
2022-10-22T08:30:58.607Z,11.13
2022-10-22T08:33:25.350Z,11.10
2022-10-22T08:35:52.267Z,10.95
2022-10-22T08:38:19.544Z,10.98
2022-10-22T08:40:53.186Z,11.00
2022-10-22T08:43:51.585Z,10.95
2022-10-22T08:46:46.058Z,10.97
2022-10-22T08:49:25.272Z,10.96
2022-10-22T08:51:52.503Z,10.98
2022-10-22T08:54:30.618Z,11.05
2022-10-22T08:57:06.888Z,11.12
2022-10-22T08:59:59.025Z,11.14
2022-10-22T09:02:57.675Z,11.23
2022-10-22T09:05:38.562Z,11.28
2022-10-22T09:08:09.626Z,11.34
2022-10-22T09:10:40.749Z,11.36
2022-10-22T09:13:11.832Z,11.42
2022-10-22T09:15:38.608Z,11.51
2022-10-22T09:18:26.824Z,11.61
2022-10-22T09:20:56.507Z,11.66
2022-10-22T09:23:28.908Z,11.65
2022-10-22T09:25:57.121Z,11.52
2022-10-22T09:28:24.038Z,11.62
2022-10-22T09:30:51.111Z,11.59
2022-10-22T09:33:26.470Z,11.57
2022-10-22T09:36:05.831Z,11.59
2022-10-22T09:38:39.875Z,11.57
2022-10-22T09:41:07.131Z,11.57
2022-10-22T09:43:36.121Z,11.47
2022-10-22T09:46:06.143Z,11.49
2022-10-22T09:48:40.914Z,11.47
2022-10-22T09:51:23.596Z,11.53
2022-10-22T09:54:02.155Z,11.52
2022-10-22T09:56:39.631Z,11.42
2022-10-22T09:59:06.920Z,11.62
2022-10-22T10:01:38.607Z,11.65
2022-10-22T10:04:16.164Z,11.69
2022-10-22T10:06:44.868Z,11.69
2022-10-22T10:09:17.753Z,11.63
2022-10-22T10:12:02.770Z,11.80
2022-10-22T10:14:57.078Z,11.85
2022-10-22T10:17:44.146Z,11.91
2022-10-22T10:20:50.628Z,11.95
2022-10-22T10:23:54.460Z,12.07
2022-10-22T10:26:34.466Z,12.12
2022-10-22T10:29:25.776Z,12.15
2022-10-22T10:32:28.411Z,12.20
2022-10-22T10:35:04.656Z,12.25
2022-10-22T10:37:40.329Z,12.34
2022-10-22T10:40:40.768Z,12.46
2022-10-22T10:43:11.746Z,12.56
2022-10-22T10:46:05.493Z,12.47
2022-10-22T10:49:18.763Z,12.66
2022-10-22T10:52:32.916Z,12.82
2022-10-22T10:55:28.788Z,12.88
2022-10-22T10:58:16.967Z,12.93
2022-10-22T11:00:55.491Z,13.08
2022-10-22T11:03:56.448Z,13.20
2022-10-22T11:06:25.808Z,13.27
2022-10-22T11:09:19.059Z,13.38
2022-10-22T11:11:51.634Z,13.47
2022-10-22T11:14:30.540Z,13.53
2022-10-22T11:17:04.480Z,13.48
2022-10-22T11:19:55.656Z,13.53
2022-10-22T11:22:32.189Z,13.55
2022-10-22T11:25:17.796Z,13.58
2022-10-22T11:28:06.772Z,13.64
2022-10-22T11:30:38.865Z,13.73
2022-10-22T11:33:28.384Z,13.79
2022-10-22T11:36:05.411Z,13.85
2022-10-22T11:38:35.129Z,13.93
2022-10-22T11:41:13.533Z,14.05
2022-10-22T11:43:55.682Z,14.14
2022-10-22T11:46:22.319Z,14.22
2022-10-22T11:49:13.896Z,14.33
2022-10-22T11:51:43.179Z,14.43
2022-10-22T11:54:34.268Z,14.46
2022-10-22T11:57:16.242Z,14.48
2022-10-22T12:00:00.831Z,14.50
2022-10-22T12:02:45.082Z,14.56
2022-10-22T12:05:23.807Z,14.52
2022-10-22T12:08:00.133Z,14.48
2022-10-22T12:10:36.756Z,14.58
2022-10-22T12:13:13.456Z,14.60
2022-10-22T12:15:55.005Z,14.55
2022-10-22T12:18:42.551Z,14.57
2022-10-22T12:21:15.790Z,14.52
2022-10-22T12:23:47.704Z,14.51
2022-10-22T12:26:33.073Z,14.57
2022-10-22T12:29:12.257Z,14.58
2022-10-22T12:31:44.733Z,14.62
2022-10-22T12:34:22.288Z,14.68
2022-10-22T12:36:53.196Z,14.72
2022-10-22T12:39:25.392Z,14.73
2022-10-22T12:41:54.087Z,14.73
2022-10-22T12:44:20.852Z,14.73
2022-10-22T12:46:51.808Z,14.72
2022-10-22T12:49:23.688Z,14.77
2022-10-22T12:51:50.391Z,14.79
2022-10-22T12:54:25.638Z,14.83
2022-10-22T12:56:54.075Z,14.77
2022-10-22T12:59:25.390Z,14.78
2022-10-22T13:01:53.187Z,14.74
2022-10-22T13:04:35.146Z,14.73
2022-10-22T13:07:22.559Z,14.72
2022-10-22T13:10:00.161Z,14.70
2022-10-22T13:12:27.704Z,14.59
2022-10-22T13:14:54.572Z,14.53
2022-10-22T13:17:38.645Z,14.61
2022-10-22T13:20:20.067Z,14.57
2022-10-22T13:23:00.362Z,14.51
2022-10-22T13:25:35.055Z,14.52
2022-10-22T13:28:16.767Z,14.46
2022-10-22T13:30:57.505Z,14.42
2022-10-22T13:33:32.729Z,14.44
2022-10-22T13:35:59.643Z,14.50
2022-10-22T13:38:28.067Z,14.50
2022-10-22T13:40:56.235Z,14.51
2022-10-22T13:43:23.452Z,14.47
2022-10-22T13:45:54.438Z,14.47
2022-10-22T13:48:23.438Z,14.52
2022-10-22T13:50:51.430Z,14.48
2022-10-22T13:53:22.449Z,14.46
2022-10-22T13:55:50.418Z,14.41
2022-10-22T13:58:24.834Z,14.38
2022-10-22T14:00:59.074Z,14.29
2022-10-22T14:03:34.641Z,14.20
2022-10-22T14:06:01.819Z,14.19
2022-10-22T14:08:28.977Z,14.11
2022-10-22T14:10:56.422Z,14.10
2022-10-22T14:13:23.350Z,14.00
2022-10-22T14:15:51.599Z,13.95
2022-10-22T14:18:26.751Z,13.92
2022-10-22T14:20:56.991Z,13.86
2022-10-22T14:23:27.909Z,13.87
2022-10-22T14:25:55.739Z,13.84
2022-10-22T14:28:22.561Z,13.82
2022-10-22T14:30:50.669Z,13.74
2022-10-22T14:33:20.093Z,13.72
2022-10-22T14:35:49.031Z,13.70
2022-10-22T14:38:16.204Z,13.72
2022-10-22T14:40:44.328Z,13.69
2022-10-22T14:43:22.310Z,13.69
2022-10-22T14:45:49.266Z,13.70
2022-10-22T14:48:16.540Z,13.70
2022-10-22T14:50:45.069Z,13.72
2022-10-22T14:53:13.642Z,13.69
2022-10-22T14:55:41.287Z,13.75
2022-10-22T14:58:08.068Z,13.82
2022-10-22T15:00:36.809Z,13.84
2022-10-22T15:03:04.438Z,13.86
2022-10-22T15:05:31.320Z,13.91
2022-10-22T15:07:59.448Z,13.91
2022-10-22T15:10:26.823Z,13.93
2022-10-22T15:12:53.517Z,13.93
2022-10-22T15:15:22.700Z,13.93
2022-10-22T15:17:50.485Z,13.95
2022-10-22T15:20:17.257Z,13.93
2022-10-22T15:22:45.310Z,13.92
2022-10-22T15:25:13.219Z,13.92
2022-10-22T15:27:40.467Z,13.91
2022-10-22T15:30:08.463Z,13.90
2022-10-22T15:32:35.253Z,13.92
2022-10-22T15:35:02.556Z,13.93
2022-10-22T15:37:29.301Z,13.88
2022-10-22T15:39:55.992Z,13.92
2022-10-22T15:42:23.908Z,13.92
2022-10-22T15:44:57.900Z,13.89
2022-10-22T15:47:28.528Z,13.87
2022-10-22T15:49:55.468Z,13.84
2022-10-22T15:52:22.234Z,13.83
2022-10-22T15:54:48.997Z,13.75
2022-10-22T15:57:15.888Z,13.77
2022-10-22T15:59:42.651Z,13.74
2022-10-22T16:02:11.482Z,13.72
2022-10-22T16:04:39.409Z,13.66
2022-10-22T16:07:06.394Z,13.72
2022-10-22T16:09:33.116Z,13.71
2022-10-22T16:11:59.842Z,13.71
2022-10-22T16:14:28.682Z,13.71
2022-10-22T16:16:55.893Z,13.69
2022-10-22T16:19:23.710Z,13.65
2022-10-22T16:21:53.404Z,13.62
2022-10-22T16:24:21.281Z,13.57
2022-10-22T16:26:48.716Z,13.45
2022-10-22T16:29:15.895Z,13.41
2022-10-22T16:31:44.025Z,13.46
2022-10-22T16:34:11.682Z,13.42
2022-10-22T16:36:39.153Z,13.37
2022-10-22T16:39:07.039Z,13.34
2022-10-22T16:41:37.643Z,13.29
2022-10-22T16:44:08.051Z,13.32
2022-10-22T16:46:38.361Z,13.24
2022-10-22T16:49:06.308Z,13.27
2022-10-22T16:51:33.123Z,13.22
2022-10-22T16:54:00.440Z,13.08
2022-10-22T16:56:27.657Z,12.99
2022-10-22T16:58:55.794Z,12.96
2022-10-22T17:01:32.669Z,12.90
2022-10-22T17:04:01.027Z,12.79
2022-10-22T17:06:28.273Z,12.69
2022-10-22T17:08:55.607Z,12.60
2022-10-22T17:11:24.566Z,12.53
2022-10-22T17:13:54.320Z,12.50
2022-10-22T17:16:24.472Z,12.48
2022-10-22T17:18:53.627Z,12.41
2022-10-22T17:21:21.353Z,12.36
2022-10-22T17:23:48.302Z,12.26
2022-10-22T17:26:19.625Z,12.23
2022-10-22T17:28:47.338Z,12.15
2022-10-22T17:31:32.769Z,12.09
2022-10-22T17:34:00.228Z,12.12
2022-10-22T17:36:31.820Z,12.00
2022-10-22T17:39:04.700Z,12.02
2022-10-22T17:41:35.356Z,11.90
2022-10-22T17:44:04.738Z,11.80
2022-10-22T17:46:32.813Z,11.70
2022-10-22T17:49:03.886Z,11.68
2022-10-22T17:51:32.067Z,11.57
2022-10-22T17:53:59.348Z,11.55
2022-10-22T17:56:28.364Z,11.36
2022-10-22T17:58:55.791Z,11.31
2022-10-22T18:01:25.410Z,11.32
2022-10-22T18:03:53.856Z,11.32
2022-10-22T18:06:21.131Z,11.22
2022-10-22T18:08:47.917Z,11.06
2022-10-22T18:11:18.539Z,10.87
2022-10-22T18:13:50.089Z,10.86
2022-10-22T18:16:17.773Z,10.73
2022-10-22T18:18:49.015Z,10.64
2022-10-22T18:21:16.457Z,10.61
2022-10-22T18:23:43.215Z,10.46
2022-10-22T18:26:09.914Z,10.26
2022-10-22T18:28:37.062Z,10.26
2022-10-22T18:31:07.708Z,10.25
2022-10-22T18:33:36.216Z,10.24
2022-10-22T18:36:11.571Z,10.25
2022-10-22T18:38:38.395Z,10.24
2022-10-22T18:41:13.232Z,10.24
2022-10-22T18:43:40.077Z,10.21
2022-10-22T18:46:07.918Z,10.13
2022-10-22T18:48:35.875Z,10.12
2022-10-22T18:51:07.842Z,10.14
2022-10-22T18:53:36.095Z,10.15
2022-10-22T18:56:06.037Z,10.18
2022-10-22T18:58:37.985Z,10.17
2022-10-22T19:01:15.588Z,10.16
2022-10-22T19:03:42.354Z,10.18
2022-10-22T19:06:09.059Z,10.10
2022-10-22T19:08:37.034Z,10.13
2022-10-22T19:11:13.229Z,10.04
2022-10-22T19:13:40.897Z,10.07
2022-10-22T19:16:11.683Z,9.98
2022-10-22T19:18:42.164Z,10.09
2022-10-22T19:21:08.962Z,10.13
2022-10-22T19:23:35.763Z,10.21
2022-10-22T19:26:15.434Z,10.11
2022-10-22T19:28:42.563Z,9.94
2022-10-22T19:31:16.692Z,9.91
2022-10-22T19:33:43.462Z,9.83
2022-10-22T19:36:14.328Z,9.77
2022-10-22T19:38:44.105Z,9.64
2022-10-22T19:41:15.206Z,9.40
2022-10-22T19:43:43.642Z,9.47
2022-10-22T19:46:11.629Z,9.45
2022-10-22T19:48:39.900Z,9.31
2022-10-22T19:51:09.743Z,9.15
2022-10-22T19:53:39.808Z,9.02
2022-10-22T19:56:10.393Z,8.94
2022-10-22T19:58:39.235Z,8.88
2022-10-22T20:01:09.917Z,8.77
2022-10-22T20:03:38.850Z,8.64
2022-10-22T20:06:07.883Z,8.39
2022-10-22T20:08:38.557Z,8.48
2022-10-22T20:11:10.700Z,8.56
2022-10-22T20:16:07.411Z,8.45
2022-10-22T20:18:34.324Z,8.43
2022-10-22T20:21:11.380Z,8.38
2022-10-22T20:23:38.124Z,8.14
2022-10-22T20:26:05.775Z,8.36
2022-10-22T20:28:32.947Z,8.34
2022-10-22T20:30:59.501Z,8.26
2022-10-22T20:33:26.400Z,8.22
2022-10-22T20:36:04.632Z,8.35
2022-10-22T20:38:31.426Z,8.34
2022-10-22T20:41:03.688Z,8.37
2022-10-22T20:43:30.603Z,8.36
2022-10-22T20:45:57.321Z,8.25
2022-10-22T20:48:26.839Z,8.27
2022-10-22T20:50:54.196Z,8.28
2022-10-22T20:53:21.257Z,8.40
2022-10-22T20:55:48.818Z,8.43
2022-10-22T20:58:17.717Z,8.46
2022-10-22T21:00:45.823Z,8.43
2022-10-22T21:03:13.652Z,8.30
2022-10-22T21:05:40.785Z,8.37
2022-10-22T21:08:07.448Z,8.45
2022-10-22T21:10:35.033Z,8.47
2022-10-22T21:13:01.837Z,8.52
2022-10-22T21:15:28.707Z,8.49
2022-10-22T21:17:55.389Z,8.51
2022-10-22T21:20:24.593Z,8.46
2022-10-22T21:22:51.919Z,8.43
2022-10-22T21:25:18.622Z,8.41
2022-10-22T21:27:45.321Z,8.37
2022-10-22T21:30:12.946Z,8.08
2022-10-22T21:32:39.933Z,7.85
2022-10-22T21:35:06.758Z,7.70
2022-10-22T21:37:35.177Z,7.64
2022-10-22T21:40:03.780Z,7.60
2022-10-22T21:42:30.688Z,7.51
2022-10-22T21:44:57.433Z,7.52
2022-10-22T21:47:24.408Z,7.50
2022-10-22T21:49:51.181Z,7.59
2022-10-22T21:52:17.977Z,7.62
2022-10-22T21:54:44.656Z,7.71
2022-10-22T21:57:11.512Z,7.83
2022-10-22T21:59:38.241Z,7.85
2022-10-22T22:02:06.014Z,7.72
2022-10-22T22:04:33.154Z,7.69
2022-10-22T22:06:59.927Z,7.60
2022-10-22T22:09:26.676Z,7.61
2022-10-22T22:11:53.359Z,7.54
2022-10-22T22:14:20.109Z,7.45
2022-10-22T22:16:46.915Z,7.33
2022-10-22T22:19:13.700Z,7.31
2022-10-22T22:21:41.644Z,7.28
2022-10-22T22:24:11.386Z,7.36
2022-10-22T22:26:39.178Z,7.37
2022-10-22T22:29:05.986Z,7.35
2022-10-22T22:31:35.143Z,7.36
2022-10-22T22:34:13.641Z,7.32
2022-10-22T22:36:43.085Z,7.25
2022-10-22T22:39:13.435Z,7.25
2022-10-22T22:41:41.016Z,7.24
2022-10-22T22:44:08.237Z,7.24
2022-10-22T22:46:34.812Z,7.16
2022-10-22T22:49:01.875Z,7.18
2022-10-22T22:51:28.560Z,7.06
2022-10-22T22:53:58.212Z,7.09
2022-10-22T22:56:27.736Z,7.07
2022-10-22T22:58:55.286Z,7.03
2022-10-22T23:01:28.069Z,7.03
2022-10-22T23:04:04.070Z,6.91
2022-10-22T23:06:33.624Z,6.92
2022-10-22T23:09:00.745Z,6.88
2022-10-22T23:11:27.831Z,6.89
2022-10-22T23:13:57.917Z,6.77
2022-10-22T23:16:27.966Z,6.74
2022-10-22T23:18:55.639Z,6.73
2022-10-22T23:21:28.074Z,6.70
2022-10-22T23:23:58.110Z,6.72
2022-10-22T23:26:46.616Z,6.61
2022-10-22T23:29:14.819Z,6.46
2022-10-22T23:31:42.982Z,6.37
2022-10-22T23:36:50.150Z,6.36
2022-10-22T23:39:19.326Z,6.38
2022-10-22T23:41:46.029Z,6.40
2022-10-22T23:44:13.646Z,6.45
2022-10-22T23:46:40.544Z,6.49
2022-10-22T23:49:09.869Z,6.44
2022-10-22T23:51:37.178Z,6.43
2022-10-22T23:54:05.533Z,6.41
2022-10-22T23:56:32.821Z,6.40
2022-10-22T23:58:59.474Z,6.38
